sensor_id;sensor_type;location;lat;lon;timestamp;pressure;altitude;pressure_sealevel;temperature;humidity
43281;BME280;62175;49.416;8.690;2023-04-19T22:17:26;100709.35;;;13.67;36.76
43281;BME280;62175;49.416;8.690;2023-04-19T22:19:54;100708.50;;;13.22;38.00
43281;BME280;62175;49.416;8.690;2023-04-19T22:22:22;100704.60;;;13.09;36.80
43281;BME280;62175;49.416;8.690;2023-04-19T22:24:52;100698.15;;;13.15;37.35
43281;BME280;62175;49.416;8.690;2023-04-19T22:27:25;100695.75;;;13.48;36.61
43281;BME280;62175;49.416;8.690;2023-04-19T22:29:53;100695.43;;;13.27;36.90
43281;BME280;62175;49.416;8.690;2023-04-19T22:32:24;100687.68;;;13.48;36.47
43281;BME280;62175;49.416;8.690;2023-04-19T22:34:51;100687.56;;;13.30;37.85
43281;BME280;62175;49.416;8.690;2023-04-19T22:37:21;100691.06;;;13.53;37.24
43281;BME280;62175;49.416;8.690;2023-04-19T22:39:48;100687.87;;;13.13;36.82
43281;BME280;62175;49.416;8.690;2023-04-19T22:42:23;100688.04;;;12.94;36.50
43281;BME280;62175;49.416;8.690;2023-04-19T22:44:51;100688.27;;;12.84;36.78
43281;BME280;62175;49.416;8.690;2023-04-19T22:47:18;100687.41;;;12.80;37.17
43281;BME280;62175;49.416;8.690;2023-04-19T22:49:45;100682.19;;;12.62;37.45
43281;BME280;62175;49.416;8.690;2023-04-19T22:52:13;100681.02;;;13.08;37.53
43281;BME280;62175;49.416;8.690;2023-04-19T22:54:41;100675.17;;;12.76;36.58
43281;BME280;62175;49.416;8.690;2023-04-19T22:57:08;100673.62;;;12.79;36.89
43281;BME280;62175;49.416;8.690;2023-04-19T22:59:37;100668.61;;;12.74;36.43
43281;BME280;62175;49.416;8.690;2023-04-19T23:02:04;100662.57;;;12.76;35.68
43281;BME280;62175;49.416;8.690;2023-04-19T23:04:32;100659.60;;;13.13;36.28
43281;BME280;62175;49.416;8.690;2023-04-19T23:07:00;100656.52;;;13.15;36.96
43281;BME280;62175;49.416;8.690;2023-04-19T23:09:28;100651.69;;;12.87;36.63
43281;BME280;62175;49.416;8.690;2023-04-19T23:11:56;100651.67;;;12.90;35.87
43281;BME280;62175;49.416;8.690;2023-04-19T23:14:23;100647.60;;;13.03;36.52
43281;BME280;62175;49.416;8.690;2023-04-19T23:16:51;100649.61;;;13.14;36.17
43281;BME280;62175;49.416;8.690;2023-04-19T23:19:18;100647.58;;;12.89;36.42
43281;BME280;62175;49.416;8.690;2023-04-19T23:21:45;100645.63;;;12.91;36.63
43281;BME280;62175;49.416;8.690;2023-04-19T23:24:12;100642.58;;;13.17;36.57
43281;BME280;62175;49.416;8.690;2023-04-19T23:26:40;100637.53;;;12.99;36.83
43281;BME280;62175;49.416;8.690;2023-04-19T23:29:08;100634.37;;;13.14;36.30
43281;BME280;62175;49.416;8.690;2023-04-19T23:31:35;100627.95;;;12.99;36.02
43281;BME280;62175;49.416;8.690;2023-04-19T23:34:03;100626.51;;;12.90;37.05
43281;BME280;62175;49.416;8.690;2023-04-19T23:36:31;100622.36;;;12.97;37.41
43281;BME280;62175;49.416;8.690;2023-04-19T23:38:58;100620.72;;;12.63;36.60
43281;BME280;62175;49.416;8.690;2023-04-19T23:41:25;100617.68;;;12.43;36.66
43281;BME280;62175;49.416;8.690;2023-04-19T23:43:52;100620.73;;;12.73;36.46
43281;BME280;62175;49.416;8.690;2023-04-19T23:46:20;100616.22;;;12.80;37.11
43281;BME280;62175;49.416;8.690;2023-04-19T23:48:47;100613.04;;;12.93;37.23
43281;BME280;62175;49.416;8.690;2023-04-19T23:51:15;100611.04;;;12.95;36.75
43281;BME280;62175;49.416;8.690;2023-04-19T23:53:42;100612.18;;;13.07;36.49
43281;BME280;62175;49.416;8.690;2023-04-19T23:56:09;100609.18;;;12.53;37.22
43281;BME280;62175;49.416;8.690;2023-04-19T23:58:37;100608.11;;;13.06;37.82
